createdAt,value
2023-01-08T00:01:22.391Z,9.50
2023-01-08T00:03:51.101Z,8.90
2023-01-08T00:06:22.256Z,9.00
2023-01-08T00:08:50.461Z,9.00
2023-01-08T00:11:18.842Z,9.30
2023-01-08T00:13:46.849Z,9.40
2023-01-08T00:16:16.986Z,9.10
2023-01-08T00:18:45.598Z,8.80
2023-01-08T00:21:14.141Z,8.80
2023-01-08T00:23:43.531Z,8.80
2023-01-08T00:26:12.578Z,9.50
2023-01-08T00:28:41.484Z,8.90
2023-01-08T00:31:11.614Z,8.80
2023-01-08T00:33:40.295Z,8.80
2023-01-08T00:36:09.595Z,8.80
2023-01-08T00:38:37.961Z,8.80
2023-01-08T00:41:07.769Z,8.80
2023-01-08T00:43:36.051Z,8.80
2023-01-08T00:46:04.383Z,9.30
2023-01-08T00:48:33.502Z,9.40
2023-01-08T00:51:03.349Z,8.80
2023-01-08T00:53:31.300Z,8.80
2023-01-08T00:56:01.832Z,8.80
2023-01-08T00:58:31.289Z,9.30
2023-01-08T01:00:59.820Z,8.80
2023-01-08T01:03:27.865Z,8.70
2023-01-08T01:06:02.111Z,8.70
2023-01-08T01:08:30.117Z,8.80
2023-01-08T01:10:58.167Z,8.80
2023-01-08T01:13:26.262Z,9.00
2023-01-08T01:16:02.385Z,9.10
2023-01-08T01:18:30.827Z,9.00
2023-01-08T01:20:58.796Z,9.00
2023-01-08T01:23:26.996Z,8.70
2023-01-08T01:25:55.471Z,8.80
2023-01-08T01:28:23.438Z,8.70
2023-01-08T01:30:56.394Z,8.80
2023-01-08T01:33:25.781Z,8.70
2023-01-08T01:36:01.771Z,8.70
2023-01-08T01:38:30.269Z,8.70
2023-01-08T01:40:58.348Z,8.80
2023-01-08T01:43:40.922Z,9.00
2023-01-08T01:46:17.037Z,9.10
2023-01-08T01:48:47.668Z,8.70
2023-01-08T01:51:15.899Z,9.00
2023-01-08T01:53:43.933Z,8.70
2023-01-08T01:56:11.926Z,8.60
2023-01-08T01:58:39.940Z,8.80
2023-01-08T02:01:09.621Z,9.20
2023-01-08T02:03:39.500Z,8.80
2023-01-08T02:06:20.530Z,8.60
2023-01-08T02:08:55.645Z,8.50
2023-01-08T02:11:30.204Z,8.50
2023-01-08T02:14:05.502Z,9.10
2023-01-08T02:16:41.662Z,8.50
2023-01-08T02:19:20.060Z,8.90
2023-01-08T02:21:59.323Z,8.60
2023-01-08T02:24:41.307Z,8.60
2023-01-08T02:27:12.269Z,8.60
2023-01-08T02:29:41.949Z,8.80
2023-01-08T02:32:10.061Z,8.50
2023-01-08T02:34:38.052Z,8.80
2023-01-08T02:37:06.121Z,8.50
2023-01-08T02:39:50.468Z,8.50
2023-01-08T02:42:28.769Z,9.50
2023-01-08T02:45:03.815Z,8.50
2023-01-08T02:47:36.448Z,8.50
2023-01-08T02:50:14.673Z,8.50
2023-01-08T02:52:51.282Z,8.50
2023-01-08T02:55:22.850Z,8.50
2023-01-08T02:57:53.096Z,8.50
2023-01-08T03:00:22.129Z,8.70
2023-01-08T03:02:53.026Z,8.80
2023-01-08T03:05:26.250Z,8.90
2023-01-08T03:07:55.849Z,8.40
2023-01-08T03:10:26.373Z,8.40
2023-01-08T03:13:00.556Z,8.40
2023-01-08T03:15:32.924Z,8.60
2023-01-08T03:18:03.227Z,8.30
2023-01-08T03:20:32.345Z,9.10
2023-01-08T03:23:03.610Z,8.30
2023-01-08T03:25:32.246Z,8.40
2023-01-08T03:28:04.751Z,8.20
2023-01-08T03:30:33.360Z,8.40
2023-01-08T03:33:03.387Z,8.40
2023-01-08T03:35:32.812Z,8.80
2023-01-08T03:38:07.528Z,8.70
2023-01-08T03:40:40.252Z,8.10
2023-01-08T03:43:09.629Z,8.30
2023-01-08T03:45:39.928Z,8.00
2023-01-08T03:48:09.602Z,8.30
2023-01-08T03:50:37.637Z,7.90
2023-01-08T03:53:05.682Z,7.90
2023-01-08T03:55:33.672Z,7.90
2023-01-08T03:58:01.713Z,7.90
2023-01-08T04:00:31.246Z,7.80
2023-01-08T04:02:59.264Z,7.80
2023-01-08T04:05:27.356Z,7.70
2023-01-08T04:07:56.896Z,7.90
2023-01-08T04:10:25.032Z,7.60
2023-01-08T04:12:53.349Z,7.60
2023-01-08T04:15:21.828Z,7.70
2023-01-08T04:17:51.192Z,7.60
2023-01-08T04:20:19.545Z,7.90
2023-01-08T04:22:47.548Z,7.80
2023-01-08T04:25:15.505Z,7.60
2023-01-08T04:27:43.512Z,7.90
2023-01-08T04:30:12.637Z,7.50
2023-01-08T04:32:40.668Z,7.50
2023-01-08T04:35:11.058Z,7.50
2023-01-08T04:37:39.073Z,7.50
2023-01-08T04:40:08.329Z,7.50
2023-01-08T04:42:37.496Z,7.50
2023-01-08T04:45:06.723Z,7.50
2023-01-08T04:47:34.952Z,7.50
2023-01-08T04:50:02.932Z,7.50
2023-01-08T04:52:32.316Z,7.60
2023-01-08T04:55:00.365Z,7.30
2023-01-08T04:57:28.448Z,7.30
2023-01-08T04:59:56.491Z,7.40
2023-01-08T05:02:24.709Z,7.40
2023-01-08T05:04:52.811Z,7.40
2023-01-08T05:07:20.807Z,7.90
2023-01-08T05:09:50.129Z,7.30
2023-01-08T05:12:18.111Z,8.00
2023-01-08T05:14:46.178Z,7.40
2023-01-08T05:17:14.198Z,7.40
2023-01-08T05:19:42.347Z,7.30
2023-01-08T05:22:10.370Z,7.30
2023-01-08T05:24:38.382Z,7.30
2023-01-08T05:27:07.819Z,7.30
2023-01-08T05:29:35.783Z,7.60
2023-01-08T05:32:03.806Z,7.40
2023-01-08T05:34:31.788Z,8.00
2023-01-08T05:36:59.875Z,7.90
2023-01-08T05:39:27.885Z,8.20
2023-01-08T05:41:55.884Z,7.80
2023-01-08T05:44:25.232Z,7.40
2023-01-08T05:46:54.614Z,7.30
2023-01-08T05:49:23.956Z,7.30
2023-01-08T05:51:52.217Z,7.20
2023-01-08T05:54:20.166Z,7.40
2023-01-08T05:56:48.120Z,7.20
2023-01-08T05:59:16.233Z,7.90
2023-01-08T06:01:45.621Z,7.30
2023-01-08T06:04:13.702Z,7.30
2023-01-08T06:06:41.762Z,8.00
2023-01-08T06:09:10.188Z,7.80
2023-01-08T06:11:38.220Z,7.20
2023-01-08T06:14:06.222Z,7.50
2023-01-08T06:16:34.210Z,7.20
2023-01-08T06:19:03.594Z,8.40
2023-01-08T06:21:31.976Z,7.10
2023-01-08T06:23:59.931Z,7.10
2023-01-08T06:26:27.938Z,7.10
2023-01-08T06:28:55.937Z,7.70
2023-01-08T06:31:23.931Z,7.10
2023-01-08T06:33:51.988Z,7.40
2023-01-08T06:36:21.366Z,7.30
2023-01-08T06:38:49.348Z,7.70
2023-01-08T06:41:17.294Z,7.10
2023-01-08T06:43:45.321Z,7.10
2023-01-08T06:46:13.833Z,7.10
2023-01-08T06:48:42.078Z,8.00
2023-01-08T06:51:10.050Z,7.10
2023-01-08T06:53:39.407Z,7.00
2023-01-08T06:56:10.772Z,7.00
2023-01-08T06:58:39.908Z,7.00
2023-01-08T07:01:08.082Z,6.90
2023-01-08T07:03:36.119Z,7.00
2023-01-08T07:06:04.299Z,6.90
2023-01-08T07:08:32.326Z,6.90
2023-01-08T07:11:04.995Z,7.00
2023-01-08T07:13:33.135Z,7.00
2023-01-08T07:16:06.997Z,7.00
2023-01-08T07:18:36.109Z,6.90
2023-01-08T07:21:04.235Z,6.90
2023-01-08T07:23:32.588Z,7.30
2023-01-08T07:26:02.229Z,6.80
2023-01-08T07:28:31.959Z,7.10
2023-01-08T07:31:03.640Z,7.60
2023-01-08T07:33:31.901Z,6.80
2023-01-08T07:35:59.949Z,6.80
2023-01-08T07:38:28.073Z,6.80
2023-01-08T07:40:58.108Z,7.60
2023-01-08T07:43:26.299Z,6.70
2023-01-08T07:45:55.847Z,6.70
2023-01-08T07:48:23.842Z,6.70
2023-01-08T07:50:52.039Z,6.70
2023-01-08T07:53:20.029Z,6.60
2023-01-08T07:55:48.705Z,6.70
2023-01-08T07:58:16.725Z,6.70
2023-01-08T08:00:44.869Z,6.70
2023-01-08T08:03:14.324Z,6.60
2023-01-08T08:05:42.431Z,6.60
2023-01-08T08:08:11.444Z,7.40
2023-01-08T08:10:39.676Z,7.10
2023-01-08T08:13:07.984Z,6.60
2023-01-08T08:15:37.217Z,6.60
2023-01-08T08:18:06.049Z,6.60
2023-01-08T08:20:35.491Z,6.60
2023-01-08T08:23:04.400Z,7.80
2023-01-08T08:25:32.645Z,6.60
2023-01-08T08:28:01.989Z,6.60
2023-01-08T08:30:31.507Z,6.60
2023-01-08T08:33:01.445Z,6.60
2023-01-08T08:35:29.769Z,6.60
2023-01-08T08:37:59.249Z,6.60
2023-01-08T08:40:28.133Z,6.70
2023-01-08T08:43:01.408Z,6.70
2023-01-08T08:45:30.297Z,6.60
2023-01-08T08:47:58.276Z,6.60
2023-01-08T08:50:26.447Z,6.70
2023-01-08T08:52:59.537Z,6.70
2023-01-08T08:55:29.276Z,6.70
2023-01-08T08:58:04.189Z,6.70
2023-01-08T09:00:32.242Z,6.70
2023-01-08T09:03:00.404Z,6.80
2023-01-08T09:05:28.763Z,6.80
2023-01-08T09:07:56.968Z,6.80
2023-01-08T09:10:25.160Z,6.80
2023-01-08T09:12:55.035Z,6.80
2023-01-08T09:15:23.138Z,7.50
2023-01-08T09:17:55.497Z,6.90
2023-01-08T09:20:23.569Z,6.90
2023-01-08T09:22:51.649Z,6.90
2023-01-08T09:25:19.927Z,6.90
2023-01-08T09:27:47.901Z,6.90
2023-01-08T09:30:17.352Z,7.20
2023-01-08T09:32:45.353Z,7.10
2023-01-08T09:35:13.385Z,7.10
2023-01-08T09:37:41.378Z,7.10
2023-01-08T09:40:15.715Z,7.30
2023-01-08T09:42:43.877Z,7.10
2023-01-08T09:45:24.328Z,7.50
2023-01-08T09:47:52.817Z,7.50
2023-01-08T09:50:23.638Z,7.80
2023-01-08T09:52:51.722Z,7.20
2023-01-08T09:55:19.935Z,7.30
2023-01-08T09:57:49.245Z,7.20
2023-01-08T10:00:23.028Z,7.80
2023-01-08T10:02:53.996Z,7.40
2023-01-08T10:05:22.318Z,7.40
2023-01-08T10:07:50.309Z,7.50
2023-01-08T10:10:21.105Z,7.50
2023-01-08T10:12:50.449Z,8.00
2023-01-08T10:15:21.824Z,7.50
2023-01-08T10:17:55.729Z,7.50
2023-01-08T10:20:25.902Z,7.60
2023-01-08T10:22:55.232Z,7.70
2023-01-08T10:25:25.149Z,7.70
2023-01-08T10:27:55.184Z,8.20
2023-01-08T10:30:34.373Z,8.90
2023-01-08T10:33:05.277Z,7.90
2023-01-08T10:35:36.255Z,7.90
2023-01-08T10:38:04.823Z,7.90
2023-01-08T10:40:38.866Z,8.00
2023-01-08T10:43:10.491Z,8.00
2023-01-08T10:45:41.882Z,8.30
2023-01-08T10:48:18.527Z,8.60
2023-01-08T10:50:47.829Z,8.10
2023-01-08T10:53:25.740Z,8.20
2023-01-08T10:56:00.546Z,8.40
2023-01-08T10:58:30.075Z,8.20
2023-01-08T11:53:05.757Z,8.40
2023-01-08T11:55:50.529Z,8.50
2023-01-08T11:58:27.575Z,8.50
2023-01-08T12:01:06.598Z,8.50
2023-01-08T12:03:41.676Z,8.60
2023-01-08T12:06:21.402Z,8.70
2023-01-08T12:09:00.284Z,8.60
2023-01-08T12:11:31.083Z,8.70
2023-01-08T12:14:23.973Z,8.70
2023-01-08T12:17:13.391Z,8.80
2023-01-08T12:19:55.160Z,8.80
2023-01-08T12:22:37.357Z,8.90
2023-01-08T12:25:23.618Z,8.90
2023-01-08T12:28:03.264Z,8.90
2023-01-08T12:30:45.416Z,9.00
2023-01-08T12:33:19.168Z,9.10
2023-01-08T12:35:52.201Z,9.20
2023-01-08T12:38:25.180Z,9.00
2023-01-08T12:40:59.307Z,9.00
2023-01-08T12:43:32.622Z,9.00
2023-01-08T12:46:03.494Z,9.00
2023-01-08T12:48:34.895Z,9.60
2023-01-08T12:51:07.961Z,8.60
2023-01-08T12:53:42.701Z,9.00
2023-01-08T12:56:17.343Z,9.10
2023-01-08T12:59:00.772Z,9.00
2023-01-08T13:01:37.764Z,9.00
2023-01-08T13:04:09.021Z,9.10
2023-01-08T13:06:37.714Z,9.00
2023-01-08T13:09:06.291Z,9.10
2023-01-08T13:11:38.581Z,9.60
2023-01-08T13:14:09.668Z,9.40
2023-01-08T13:16:40.653Z,9.10
2023-01-08T13:19:23.244Z,9.10
2023-01-08T13:21:52.456Z,9.30
2023-01-08T13:24:30.099Z,9.10
2023-01-08T13:27:11.725Z,9.30
2023-01-08T13:29:42.768Z,9.10
2023-01-08T13:32:30.836Z,9.60
2023-01-08T13:35:04.676Z,9.30
2023-01-08T13:37:32.636Z,9.30
2023-01-08T13:40:00.620Z,9.20
2023-01-08T13:42:31.468Z,9.40
2023-01-08T13:45:01.495Z,9.50
2023-01-08T13:47:33.312Z,9.30
2023-01-08T13:50:04.718Z,9.50
2023-01-08T13:52:44.704Z,9.30
2023-01-08T13:55:17.295Z,9.40
2023-01-08T13:57:50.504Z,9.60
2023-01-08T14:00:23.657Z,9.40
2023-01-08T14:02:54.832Z,9.40
2023-01-08T14:05:29.134Z,9.50
2023-01-08T14:07:58.796Z,9.50
2023-01-08T14:10:28.964Z,9.90
2023-01-08T14:13:07.162Z,9.40
2023-01-08T14:15:36.457Z,9.50
2023-01-08T14:18:05.969Z,9.50
2023-01-08T14:20:35.673Z,9.40
2023-01-08T14:23:04.515Z,9.40
2023-01-08T14:25:32.565Z,9.60
2023-01-08T14:28:04.687Z,9.40
2023-01-08T14:30:33.172Z,9.40
2023-01-08T14:33:01.865Z,9.40
2023-01-08T14:35:33.959Z,9.40
2023-01-08T14:38:03.443Z,9.40
2023-01-08T14:40:34.839Z,9.40
2023-01-08T14:43:12.451Z,9.40
2023-01-08T14:45:46.439Z,9.30
2023-01-08T14:48:20.318Z,9.30
2023-01-08T14:51:01.110Z,9.60
2023-01-08T14:53:33.420Z,9.30
2023-01-08T14:56:03.140Z,9.30
2023-01-08T14:58:40.011Z,9.30
2023-01-08T15:01:14.933Z,9.30
2023-01-08T15:03:44.749Z,9.40
2023-01-08T15:06:14.108Z,9.20
2023-01-08T15:08:43.665Z,9.20
2023-01-08T15:11:22.811Z,9.20
2023-01-08T15:13:53.423Z,9.20
2023-01-08T15:16:32.471Z,9.20
2023-01-08T15:19:07.977Z,9.30
2023-01-08T15:21:36.800Z,9.10
2023-01-08T15:24:06.928Z,9.20
2023-01-08T15:26:35.329Z,9.00
2023-01-08T15:29:07.561Z,9.00
2023-01-08T15:31:48.543Z,9.00
2023-01-08T15:34:19.366Z,8.90
2023-01-08T15:36:47.676Z,8.90
2023-01-08T15:39:16.000Z,9.00
2023-01-08T15:42:01.338Z,8.80
2023-01-08T15:44:31.151Z,8.70
2023-01-08T15:46:59.153Z,8.70
2023-01-08T15:49:27.604Z,8.70
2023-01-08T15:51:56.789Z,8.70
2023-01-08T15:54:27.021Z,8.60
2023-01-08T15:56:55.174Z,8.60
2023-01-08T15:59:23.249Z,8.60
2023-01-08T16:01:52.741Z,8.60
2023-01-08T16:04:20.777Z,9.40
2023-01-08T16:06:52.481Z,8.70
2023-01-08T16:09:20.460Z,8.60
2023-01-08T16:11:49.636Z,9.00
2023-01-08T16:14:17.623Z,8.60
2023-01-08T16:16:45.738Z,8.50
2023-01-08T16:19:17.761Z,8.50
2023-01-08T16:21:48.189Z,8.50
2023-01-08T16:24:16.326Z,9.00
2023-01-08T16:26:44.317Z,8.50
2023-01-08T16:29:12.902Z,8.60
2023-01-08T16:31:40.947Z,8.70
2023-01-08T16:34:08.923Z,9.20
2023-01-08T16:36:38.389Z,8.80
2023-01-08T16:39:06.687Z,8.70
2023-01-08T16:41:35.400Z,8.70
2023-01-08T16:44:03.504Z,8.70
2023-01-08T16:46:31.471Z,8.70
2023-01-08T16:48:59.568Z,8.70
2023-01-08T16:51:27.897Z,8.70
2023-01-08T16:53:57.262Z,8.80
2023-01-08T16:56:25.326Z,8.70
2023-01-08T16:58:53.378Z,8.80
2023-01-08T17:01:22.538Z,8.80
2023-01-08T17:03:52.307Z,8.70
2023-01-08T17:06:20.362Z,8.80
2023-01-08T17:08:48.377Z,8.80
2023-01-08T17:11:19.528Z,8.80
2023-01-08T17:13:48.190Z,8.80
2023-01-08T17:16:19.591Z,8.80
2023-01-08T17:18:47.971Z,8.80
2023-01-08T17:21:18.147Z,9.60
2023-01-08T17:23:46.418Z,8.80
2023-01-08T17:26:17.896Z,9.00
2023-01-08T17:28:47.216Z,9.10
2023-01-08T17:31:18.412Z,8.80
2023-01-08T17:33:50.082Z,8.90
2023-01-08T17:36:20.120Z,8.80
2023-01-08T17:38:50.048Z,8.90
2023-01-08T17:41:37.744Z,8.90
2023-01-08T17:44:07.399Z,8.90
2023-01-08T17:46:36.333Z,8.90
2023-01-08T17:49:04.836Z,8.90
2023-01-08T17:51:33.583Z,9.50
2023-01-08T17:54:02.527Z,8.80
2023-01-08T17:56:31.891Z,8.90
2023-01-08T17:58:59.912Z,8.80
2023-01-08T18:01:28.027Z,8.90
2023-01-08T18:03:56.292Z,9.00
2023-01-08T18:06:24.380Z,8.90
2023-01-08T18:08:52.386Z,8.90
2023-01-08T18:11:20.448Z,8.90
2023-01-08T18:13:49.816Z,8.90
2023-01-08T18:16:17.878Z,8.90
2023-01-08T18:18:45.914Z,8.90
2023-01-08T18:21:13.938Z,8.80
2023-01-08T18:23:41.973Z,8.90
2023-01-08T18:26:12.542Z,8.80
2023-01-08T18:28:40.758Z,8.80
2023-01-08T18:31:12.156Z,8.80
2023-01-08T18:33:40.959Z,8.80
2023-01-08T18:36:11.521Z,8.70
2023-01-08T18:38:40.885Z,8.70
2023-01-08T18:41:09.725Z,8.80
2023-01-08T18:43:38.016Z,8.80
2023-01-08T18:46:07.687Z,8.80
2023-01-08T18:48:37.105Z,8.80
2023-01-08T18:51:07.501Z,8.80
2023-01-08T18:53:35.708Z,8.80
2023-01-08T18:56:03.732Z,8.80
2023-01-08T18:58:32.013Z,8.80
2023-01-08T19:01:06.048Z,8.80
2023-01-08T19:03:34.612Z,8.80
2023-01-08T19:06:04.004Z,9.00
2023-01-08T19:08:32.010Z,9.00
2023-01-08T19:11:04.455Z,8.80
2023-01-08T19:13:32.448Z,8.90
2023-01-08T19:16:01.069Z,9.10
2023-01-08T19:18:29.071Z,9.00
2023-01-08T19:20:59.401Z,9.00
2023-01-08T19:23:30.105Z,8.90
2023-01-08T19:25:58.088Z,8.90
2023-01-08T19:28:26.189Z,9.10
2023-01-08T19:30:57.606Z,9.00
2023-01-08T19:33:25.958Z,9.00
2023-01-08T19:35:54.239Z,9.10
2023-01-08T19:38:22.219Z,9.00
2023-01-08T19:40:51.556Z,9.00
2023-01-08T19:43:45.327Z,9.10
2023-01-08T19:46:15.362Z,8.90
2023-01-08T19:48:44.025Z,8.90
2023-01-08T19:51:13.541Z,8.90
2023-01-08T19:53:41.989Z,9.00
2023-01-08T19:56:14.092Z,8.90
2023-01-08T19:58:42.578Z,8.80
2023-01-08T20:01:12.288Z,8.90
2023-01-08T20:03:41.023Z,8.80
2023-01-08T20:06:10.742Z,8.80
2023-01-08T20:08:38.853Z,8.70
2023-01-08T20:11:09.316Z,9.30
2023-01-08T20:13:38.948Z,8.80
2023-01-08T20:16:09.213Z,8.70
2023-01-08T20:18:37.781Z,8.70
2023-01-08T20:21:08.311Z,8.70
2023-01-08T20:23:36.967Z,8.70
2023-01-08T20:26:06.939Z,9.20
2023-01-08T20:28:35.482Z,8.70
2023-01-08T20:31:09.793Z,8.80
2023-01-08T20:33:38.679Z,8.90
2023-01-08T20:36:09.198Z,9.00
2023-01-08T20:38:37.261Z,8.90
2023-01-08T20:41:06.933Z,9.10
2023-01-08T20:43:36.084Z,8.80
2023-01-08T20:46:05.398Z,8.80
2023-01-08T20:48:42.923Z,8.80
2023-01-08T20:51:14.966Z,8.70
2023-01-08T20:53:43.347Z,9.20
2023-01-08T20:56:13.345Z,8.60
2023-01-08T20:58:42.986Z,8.70
2023-01-08T21:01:13.751Z,8.60
2023-01-08T21:03:44.477Z,8.90
2023-01-08T21:06:14.579Z,8.50
2023-01-08T21:08:43.680Z,8.60
2023-01-08T21:11:13.426Z,8.50
2023-01-08T21:13:41.720Z,8.60
2023-01-08T21:16:12.828Z,8.50
2023-01-08T21:18:44.079Z,8.50
2023-01-08T21:21:13.290Z,8.40
2023-01-08T21:23:41.535Z,8.40
2023-01-08T21:26:12.033Z,8.40
2023-01-08T21:28:41.598Z,8.30
2023-01-08T21:31:11.689Z,8.30
2023-01-08T21:33:40.016Z,8.50
2023-01-08T21:36:12.660Z,8.30
2023-01-08T21:38:41.430Z,8.30
2023-01-08T21:41:12.258Z,8.40
2023-01-08T21:43:57.673Z,8.30
2023-01-08T21:46:28.556Z,8.20
2023-01-08T21:48:56.623Z,8.50
2023-01-08T21:51:43.589Z,8.40
2023-01-08T21:54:11.564Z,8.20
2023-01-08T21:56:40.118Z,8.20
2023-01-08T21:59:08.084Z,8.20
2023-01-08T22:01:36.043Z,8.10
2023-01-08T22:04:04.092Z,8.10
2023-01-08T22:06:34.802Z,8.50
2023-01-08T22:09:02.818Z,8.10
2023-01-08T22:11:30.828Z,8.40
2023-01-08T22:13:58.908Z,8.00
2023-01-08T22:16:27.309Z,7.90
2023-01-08T22:18:55.479Z,7.90
2023-01-08T22:21:23.529Z,7.90
2023-01-08T22:23:52.948Z,8.20
2023-01-08T22:26:21.253Z,7.80
2023-01-08T22:28:49.264Z,7.80
2023-01-08T22:31:18.184Z,7.80
2023-01-08T22:33:46.242Z,7.70
2023-01-08T22:36:15.530Z,7.70
2023-01-08T22:38:43.462Z,7.70
2023-01-08T22:41:16.942Z,7.70
2023-01-08T22:43:45.146Z,7.60
2023-01-08T22:46:15.931Z,7.60
2023-01-08T22:48:44.559Z,7.60
2023-01-08T22:51:12.729Z,7.50
2023-01-08T22:53:41.028Z,8.10
2023-01-08T22:56:12.244Z,7.70
2023-01-08T22:58:42.837Z,7.40
2023-01-08T23:01:15.573Z,7.40
2023-01-08T23:03:44.603Z,7.40
2023-01-08T23:06:13.727Z,7.30
2023-01-08T23:08:42.737Z,7.20
2023-01-08T23:11:13.143Z,7.20
2023-01-08T23:13:43.199Z,7.20
2023-01-08T23:16:13.563Z,7.20
2023-01-08T23:18:42.036Z,7.20
2023-01-08T23:21:12.493Z,7.40
2023-01-08T23:23:40.710Z,7.20
2023-01-08T23:26:10.854Z,7.10
2023-01-08T23:28:39.327Z,7.10
2023-01-08T23:31:10.327Z,7.60
2023-01-08T23:33:38.319Z,7.20
2023-01-08T23:36:07.068Z,7.00
2023-01-08T23:38:35.408Z,7.00
2023-01-08T23:41:07.691Z,6.90
2023-01-08T23:43:35.664Z,6.90
2023-01-08T23:46:04.574Z,6.90
2023-01-08T23:48:34.237Z,6.80
2023-01-08T23:51:02.641Z,6.80
2023-01-08T23:53:31.063Z,6.80
2023-01-08T23:55:59.169Z,6.80
2023-01-08T23:58:27.155Z,6.70
